Corinth, Arkansas
Current Conditions -  °F | °C
As of 1:10 AM on Sunday 26 Oct 2014 (Local Time) from KRUE Reporting Station
Haze Haze  
Wind Chill: 60°   Ceiling: Unl
Heat Index: 60°   Visibility: 2.5mi
Dew Point: 58°   Wind: 0mph
Humidity: 93%   Direction: NA
Pressure: 30.01"   Gusts: NA
Location:  35.1102°N, 93.4555°W
Report Text: KRUE 260610Z AUTO 00000KT 2 1/2SM BR CLR 16/14 A3001 RMK AO2 T01560144
Loading
Personal Weather Stations






























Interactive Weather Map
Tropical Storm Tracking
New forecast layout! Learn more

10-Day Weather Forecast

Advertisements
Track Severe Weather on mobile